Time;durP1;ratioP1;P1;durP2;ratioP2;P2;SDS_P1;SDS_P2;PMS_P1;PMS_P2;Temp;Humidity;BMP_temperature;BMP_pressure;BME280_temperature;BME280_humidity;BME280_pressure;Samples;Min_cycle;Max_cycle;Signal;HPM_P1;HPM_P2
2023/06/19 00:00:15;;;;;;;0.80;0.70;;;15.30;99.90;;;;;;4921089;29;20256;-87
2023/06/19 00:02:46;;;;;;;1.30;0.83;;;15.30;99.90;;;;;;4945238;29;20235;-87
2023/06/19 00:05:18;;;;;;;1.50;0.90;;;15.20;99.90;;;;;;4949664;29;20695;-85
2023/06/19 00:07:48;;;;;;;0.90;0.70;;;15.20;99.90;;;;;;4943988;29;20272;-86
2023/06/19 00:10:20;;;;;;;1.20;0.80;;;14.90;99.90;;;;;;4941488;29;20209;-86
2023/06/19 00:12:51;;;;;;;1.73;1.00;;;15.10;99.90;;;;;;4937799;29;20326;-86
2023/06/19 00:15:23;;;;;;;1.30;1.00;;;14.90;99.90;;;;;;4937865;29;20204;-86
2023/06/19 00:17:54;;;;;;;1.87;1.00;;;14.90;99.90;;;;;;4936043;29;20205;-84
2023/06/19 00:20:25;;;;;;;2.80;0.90;;;15.10;99.90;;;;;;4937398;29;20230;-88
2023/06/19 00:22:56;;;;;;;2.27;0.80;;;15.20;99.90;;;;;;4937225;29;20235;-87
2023/06/19 00:25:27;;;;;;;1.00;0.83;;;15.10;99.90;;;;;;4933842;29;20223;-87
2023/06/19 00:27:58;;;;;;;1.30;0.90;;;15.00;99.90;;;;;;4918946;29;20212;-87
2023/06/19 00:30:32;;;;;;;1.47;1.10;;;15.00;99.90;;;;;;4935053;29;20209;-86
2023/06/19 00:33:03;;;;;;;2.80;1.10;;;14.90;99.90;;;;;;4936527;29;20263;-87
2023/06/19 00:35:34;;;;;;;2.07;1.17;;;14.70;99.90;;;;;;4929077;29;20240;-86
2023/06/19 00:38:05;;;;;;;1.47;0.87;;;14.70;99.90;;;;;;4918716;29;20215;-86
2023/06/19 00:40:36;;;;;;;3.53;1.10;;;14.50;99.90;;;;;;4918719;29;20212;-87
2023/06/19 00:43:09;;;;;;;0.90;0.73;;;14.30;99.90;;;;;;4937814;29;20212;-88
2023/06/19 00:45:41;;;;;;;1.87;1.03;;;14.20;99.90;;;;;;4937712;29;20246;-87
2023/06/19 00:48:13;;;;;;;2.07;1.00;;;14.20;99.90;;;;;;4917920;29;20217;-87
2023/06/19 00:50:44;;;;;;;1.90;1.10;;;14.10;99.90;;;;;;4918402;29;20212;-87
2023/06/19 00:53:16;;;;;;;2.13;0.90;;;14.10;99.90;;;;;;4918055;29;20639;-87
2023/06/19 00:55:48;;;;;;;2.03;0.80;;;13.90;99.90;;;;;;4917970;29;20224;-87
2023/06/19 00:58:19;;;;;;;1.00;0.83;;;13.90;99.90;;;;;;4916637;29;20215;-86
2023/06/19 01:00:52;;;;;;;1.40;1.00;;;13.80;99.90;;;;;;4921589;29;20220;-88
2023/06/19 01:03:37;;;;;;;1.10;0.93;;;13.70;99.90;;;;;;4918102;29;20205;-88
2023/06/19 01:06:14;;;;;;;1.20;0.90;;;13.60;99.90;;;;;;4919645;29;20237;-88
2023/06/19 01:08:52;;;;;;;2.10;0.90;;;13.50;99.90;;;;;;4936329;29;20611;-88
2023/06/19 01:11:27;;;;;;;1.43;0.80;;;13.50;99.90;;;;;;4932541;29;20245;-87
2023/06/19 01:14:00;;;;;;;2.37;0.77;;;13.40;99.90;;;;;;4917237;29;20291;-88
2023/06/19 01:16:33;;;;;;;0.87;0.67;;;13.30;99.90;;;;;;4917072;29;20577;-86
2023/06/19 01:19:07;;;;;;;3.37;1.97;;;13.20;99.90;;;;;;4916204;29;20217;-86
2023/06/19 01:21:39;;;;;;;1.60;1.10;;;13.10;99.90;;;;;;4916959;29;20337;-86
2023/06/19 01:24:12;;;;;;;0.87;0.80;;;13.00;99.90;;;;;;4917414;29;20215;-87
2023/06/19 01:26:45;;;;;;;1.60;1.10;;;12.90;99.90;;;;;;4917115;29;20205;-86
2023/06/19 01:29:18;;;;;;;1.43;0.77;;;12.90;99.90;;;;;;4915819;29;20204;-87
2023/06/19 01:31:56;;;;;;;1.80;0.80;;;12.80;99.90;;;;;;4927436;29;20234;-87
2023/06/19 01:34:28;;;;;;;4.03;0.73;;;12.60;99.90;;;;;;4935578;29;20293;-85
2023/06/19 01:37:00;;;;;;;1.00;0.83;;;12.60;99.90;;;;;;4934559;29;20664;-86
2023/06/19 01:39:35;;;;;;;3.00;1.10;;;12.50;99.90;;;;;;4935644;29;20208;-87
2023/06/19 01:42:09;;;;;;;1.83;0.97;;;12.30;99.90;;;;;;4934128;29;20588;-87
2023/06/19 01:44:40;;;;;;;4.33;0.90;;;12.00;99.90;;;;;;4933256;29;20211;-89
2023/06/19 01:47:13;;;;;;;2.53;0.90;;;11.80;99.90;;;;;;4921254;29;20209;-89
2023/06/19 01:49:44;;;;;;;4.43;1.50;;;11.60;99.90;;;;;;4922967;29;20235;-88
2023/06/19 01:52:15;;;;;;;2.23;1.30;;;11.40;99.90;;;;;;4931587;29;20232;-89
2023/06/19 01:54:48;;;;;;;2.03;1.30;;;11.30;99.90;;;;;;4926598;29;20209;-89
2023/06/19 01:57:19;;;;;;;3.77;1.10;;;10.90;99.90;;;;;;4933282;29;20703;-89
2023/06/19 01:59:50;;;;;;;10.97;1.77;;;10.90;99.90;;;;;;4932758;29;20235;-89
2023/06/19 02:02:21;;;;;;;3.53;0.97;;;10.70;99.90;;;;;;4921040;29;20665;-90
2023/06/19 02:04:52;;;;;;;9.20;1.60;;;10.70;99.90;;;;;;4939849;29;20209;-90
2023/06/19 02:07:23;;;;;;;4.70;1.10;;;10.50;99.90;;;;;;4938710;29;20208;-90
2023/06/19 02:09:55;;;;;;;3.03;1.00;;;10.50;99.90;;;;;;4933273;29;20228;-88
2023/06/19 02:12:26;;;;;;;5.43;1.37;;;10.60;99.90;;;;;;4933287;29;20738;-88
2023/06/19 02:14:57;;;;;;;6.53;1.63;;;10.60;99.90;;;;;;4923869;29;20671;-89
2023/06/19 02:17:28;;;;;;;4.67;1.13;;;10.70;99.90;;;;;;4928101;29;20236;-89
2023/06/19 02:19:58;;;;;;;8.60;1.47;;;10.80;99.90;;;;;;4925874;29;20269;-86
2023/06/19 02:22:29;;;;;;;4.47;0.97;;;10.90;99.90;;;;;;4919930;29;20593;-87
2023/06/19 02:25:02;;;;;;;3.30;1.20;;;10.90;99.90;;;;;;4920087;29;20217;-87
2023/06/19 02:27:33;;;;;;;4.30;1.10;;;10.80;99.90;;;;;;4919681;29;20241;-87
2023/06/19 02:30:04;;;;;;;1.60;1.10;;;10.90;99.90;;;;;;4921199;29;20209;-88
2023/06/19 02:32:35;;;;;;;3.23;1.10;;;10.90;99.90;;;;;;4928673;29;20303;-88
2023/06/19 02:35:11;;;;;;;1.93;0.87;;;11.10;99.90;;;;;;4946538;29;20207;-83
2023/06/19 02:37:43;;;;;;;1.57;1.10;;;11.20;99.90;;;;;;4945759;29;20267;-84
2023/06/19 02:40:16;;;;;;;0.93;0.90;;;11.10;99.90;;;;;;4935895;29;20215;-82
2023/06/19 02:42:47;;;;;;;1.00;0.90;;;11.30;99.90;;;;;;4928886;29;20229;-85
2023/06/19 02:45:18;;;;;;;2.00;0.90;;;11.20;99.90;;;;;;4931499;29;20204;-84
2023/06/19 02:47:50;;;;;;;2.23;1.17;;;11.20;99.90;;;;;;4932955;29;20204;-83
2023/06/19 02:50:21;;;;;;;2.20;1.60;;;11.30;99.90;;;;;;4926798;29;20299;-84
2023/06/19 02:52:52;;;;;;;2.07;1.23;;;11.30;99.90;;;;;;4929250;29;20700;-84
2023/06/19 02:55:24;;;;;;;3.40;1.33;;;11.30;99.90;;;;;;4928306;29;20209;-84
2023/06/19 02:57:56;;;;;;;2.07;1.27;;;11.40;99.90;;;;;;4928127;29;20214;-83
2023/06/19 03:00:28;;;;;;;1.70;1.03;;;11.40;99.90;;;;;;4931625;29;20275;-82
2023/06/19 03:02:59;;;;;;;1.33;1.00;;;11.50;99.90;;;;;;4927341;29;20255;-83
2023/06/19 03:05:30;;;;;;;1.80;1.13;;;11.50;99.90;;;;;;4924071;29;20209;-84
2023/06/19 03:08:01;;;;;;;1.93;1.10;;;11.50;99.90;;;;;;4932152;29;20653;-82
2023/06/19 03:10:33;;;;;;;16.17;1.90;;;11.40;99.90;;;;;;4934895;29;20238;-83
2023/06/19 03:13:04;;;;;;;3.97;1.20;;;11.40;99.90;;;;;;4932392;29;20227;-84
2023/06/19 03:15:35;;;;;;;2.63;1.17;;;11.40;99.90;;;;;;4929481;29;20219;-86
2023/06/19 03:18:08;;;;;;;1.13;0.90;;;11.40;99.90;;;;;;4928288;29;20212;-82
2023/06/19 03:20:39;;;;;;;1.17;1.00;;;11.30;99.90;;;;;;4927143;29;20212;-84
2023/06/19 03:23:09;;;;;;;1.73;1.30;;;11.30;99.90;;;;;;4933515;29;20291;-82
2023/06/19 03:25:42;;;;;;;1.57;1.10;;;11.30;99.90;;;;;;4934685;29;20208;-81
2023/06/19 03:28:13;;;;;;;2.87;1.13;;;11.20;99.90;;;;;;4928530;29;20285;-83
2023/06/19 03:30:44;;;;;;;1.80;1.30;;;11.20;99.90;;;;;;4927278;29;20216;-84
2023/06/19 03:33:15;;;;;;;2.43;0.80;;;11.10;99.90;;;;;;4925839;29;20232;-84
2023/06/19 03:35:46;;;;;;;2.20;1.23;;;11.00;99.90;;;;;;4928652;29;20201;-84
2023/06/19 03:38:17;;;;;;;2.10;1.57;;;10.90;99.90;;;;;;4930148;29;20208;-83
2023/06/19 03:40:49;;;;;;;3.63;1.97;;;10.90;99.90;;;;;;4929501;29;20215;-85
2023/06/19 03:43:20;;;;;;;1.50;1.30;;;10.90;99.90;;;;;;4927343;29;20673;-84
2023/06/19 03:45:51;;;;;;;2.53;1.30;;;10.90;99.90;;;;;;4929344;29;20205;-84
2023/06/19 03:48:22;;;;;;;1.60;1.20;;;10.80;99.90;;;;;;4923340;29;20204;-83
2023/06/19 03:50:52;;;;;;;1.30;1.20;;;10.80;99.90;;;;;;4923047;29;20215;-85
2023/06/19 03:53:23;;;;;;;3.13;1.30;;;10.70;99.90;;;;;;4931067;29;20240;-83
2023/06/19 03:55:55;;;;;;;1.50;1.40;;;10.70;99.90;;;;;;4930411;29;20617;-82
2023/06/19 03:58:26;;;;;;;1.23;1.13;;;10.70;99.90;;;;;;4931241;29;20215;-84
2023/06/19 04:00:57;;;;;;;1.60;1.20;;;10.70;99.90;;;;;;4930951;29;20234;-83
2023/06/19 04:03:28;;;;;;;2.67;1.00;;;10.70;99.90;;;;;;4932144;29;20212;-83
2023/06/19 04:05:59;;;;;;;2.10;1.30;;;10.70;99.90;;;;;;4932947;29;20208;-84
2023/06/19 04:08:30;;;;;;;1.93;1.30;;;10.60;99.90;;;;;;4925269;29;20211;-84
2023/06/19 04:11:03;;;;;;;2.37;1.57;;;10.70;99.90;;;;;;4929604;29;20208;-84
2023/06/19 04:13:34;;;;;;;1.70;1.60;;;10.60;99.90;;;;;;4927940;29;20232;-84
2023/06/19 04:16:05;;;;;;;3.53;2.30;;;10.50;99.90;;;;;;4923356;29;20226;-83
2023/06/19 04:18:36;;;;;;;2.77;2.20;;;10.60;99.90;;;;;;4926504;29;20209;-85
2023/06/19 04:21:07;;;;;;;2.23;2.07;;;10.40;99.90;;;;;;4924251;29;20251;-84
2023/06/19 04:23:38;;;;;;;3.93;2.37;;;10.40;99.90;;;;;;4926241;29;20216;-84
2023/06/19 04:26:10;;;;;;;3.10;1.90;;;10.30;99.90;;;;;;4928816;29;20209;-84
2023/06/19 04:28:41;;;;;;;2.17;1.17;;;10.20;99.90;;;;;;4925972;29;20211;-85
2023/06/19 04:31:12;;;;;;;1.60;1.17;;;10.30;99.90;;;;;;4929220;29;20240;-86
2023/06/19 04:33:43;;;;;;;2.50;1.53;;;10.30;99.90;;;;;;4922380;29;20724;-85
2023/06/19 04:36:14;;;;;;;1.57;1.47;;;10.40;99.90;;;;;;4925814;29;20674;-84
2023/06/19 04:38:46;;;;;;;1.90;1.47;;;10.40;99.90;;;;;;4949260;29;20204;-85
2023/06/19 04:41:22;;;;;;;1.50;1.40;;;10.40;99.90;;;;;;4947630;29;20219;-85
2023/06/19 04:43:53;;;;;;;2.83;1.30;;;10.50;99.90;;;;;;4935777;29;20237;-84
2023/06/19 04:46:24;;;;;;;1.40;1.30;;;10.50;99.90;;;;;;4935598;29;20663;-86
2023/06/19 04:48:55;;;;;;;1.60;1.10;;;10.50;99.90;;;;;;4926424;29;20219;-85
2023/06/19 04:51:26;;;;;;;1.47;1.10;;;10.50;99.90;;;;;;4934160;29;20712;-84
2023/06/19 04:53:57;;;;;;;2.13;1.30;;;10.40;99.90;;;;;;4926447;29;20237;-84
2023/06/19 04:56:29;;;;;;;4.00;1.30;;;10.40;99.90;;;;;;4933991;29;20239;-83
2023/06/19 04:59:01;;;;;;;1.20;1.03;;;10.40;99.90;;;;;;4930998;29;20216;-84
2023/06/19 05:01:31;;;;;;;0.80;0.80;;;10.40;99.90;;;;;;4929213;29;20219;-84
2023/06/19 05:04:02;;;;;;;2.70;0.90;;;10.40;99.90;;;;;;4930317;29;20208;-84
2023/06/19 05:06:33;;;;;;;1.20;0.90;;;10.40;99.90;;;;;;4934037;29;20669;-83
2023/06/19 05:09:04;;;;;;;1.07;1.00;;;10.40;99.90;;;;;;4922639;29;20209;-83
2023/06/19 05:11:37;;;;;;;1.23;0.73;;;10.40;99.90;;;;;;4930039;29;20222;-84
2023/06/19 05:14:08;;;;;;;2.23;1.10;;;10.40;99.90;;;;;;4924319;29;20723;-84
2023/06/19 05:16:38;;;;;;;0.87;0.73;;;10.40;99.90;;;;;;4932843;29;20208;-84
2023/06/19 05:19:09;;;;;;;0.80;0.80;;;10.40;99.90;;;;;;4928988;29;20197;-84
2023/06/19 05:21:40;;;;;;;1.63;1.00;;;10.50;99.90;;;;;;4921093;29;20229;-84
2023/06/19 05:24:11;;;;;;;1.10;0.97;;;10.50;99.90;;;;;;4926141;29;20201;-84
2023/06/19 05:26:44;;;;;;;2.00;0.90;;;10.50;99.90;;;;;;4927567;29;20869;-84
2023/06/19 05:29:14;;;;;;;2.20;0.90;;;10.40;99.90;;;;;;4926310;29;20200;-84
2023/06/19 05:31:45;;;;;;;3.07;1.00;;;10.40;99.90;;;;;;4933728;29;20584;-84
2023/06/19 05:34:17;;;;;;;1.37;1.00;;;10.40;99.90;;;;;;4932409;29;20240;-86
2023/06/19 05:36:47;;;;;;;2.27;1.23;;;10.40;99.90;;;;;;4928101;29;20193;-84
2023/06/19 05:39:19;;;;;;;1.80;1.33;;;10.40;99.90;;;;;;4932751;29;20208;-85
2023/06/19 05:41:51;;;;;;;2.13;1.93;;;10.40;99.90;;;;;;4920538;29;20209;-85
2023/06/19 05:44:22;;;;;;;2.97;2.07;;;10.40;99.90;;;;;;4930891;29;20208;-83
2023/06/19 05:46:53;;;;;;;2.87;1.60;;;10.40;99.90;;;;;;4920575;29;20200;-83
2023/06/19 05:49:23;;;;;;;1.93;1.70;;;10.40;99.90;;;;;;4931817;29;20680;-84
2023/06/19 05:51:58;;;;;;;2.23;1.70;;;10.40;99.90;;;;;;4923936;29;20208;-84
2023/06/19 05:54:29;;;;;;;1.77;1.13;;;10.40;99.90;;;;;;4931540;29;20284;-84
2023/06/19 05:57:02;;;;;;;1.37;1.27;;;10.40;99.90;;;;;;4932375;29;20212;-84
2023/06/19 05:59:33;;;;;;;1.53;1.10;;;10.40;99.90;;;;;;4929842;29;20291;-84
2023/06/19 06:02:06;;;;;;;2.60;1.37;;;10.40;99.90;;;;;;4919386;29;20593;-84
2023/06/19 06:04:36;;;;;;;1.33;1.23;;;10.40;99.90;;;;;;4924482;29;20219;-82
2023/06/19 06:07:08;;;;;;;2.10;1.40;;;10.40;99.90;;;;;;4925881;29;20205;-84
2023/06/19 06:09:39;;;;;;;2.57;1.03;;;10.50;99.90;;;;;;4921413;29;20220;-83
2023/06/19 06:12:12;;;;;;;1.37;1.27;;;10.50;99.90;;;;;;4927943;29;20570;-84
2023/06/19 06:14:43;;;;;;;2.30;1.13;;;10.50;99.90;;;;;;4928817;29;20232;-82
2023/06/19 06:17:14;;;;;;;2.00;1.07;;;10.50;99.90;;;;;;4931870;29;20213;-84
2023/06/19 06:19:45;;;;;;;1.20;1.10;;;10.50;99.90;;;;;;4925232;29;20566;-83
2023/06/19 06:22:16;;;;;;;3.87;1.60;;;10.50;99.90;;;;;;4920765;29;20213;-83
2023/06/19 06:24:48;;;;;;;1.50;1.33;;;10.50;99.90;;;;;;4928097;29;20212;-83
2023/06/19 06:27:20;;;;;;;2.60;1.50;;;10.50;99.90;;;;;;4928423;29;20225;-84
2023/06/19 06:29:51;;;;;;;1.73;1.20;;;10.50;99.90;;;;;;4924009;29;20211;-84
2023/06/19 06:32:22;;;;;;;2.53;1.23;;;10.50;99.90;;;;;;4920581;29;20217;-84
2023/06/19 06:34:52;;;;;;;3.77;1.40;;;10.40;99.90;;;;;;4926864;29;20701;-84
2023/06/19 06:37:24;;;;;;;1.47;1.10;;;10.40;99.90;;;;;;4930919;29;20209;-83
2023/06/19 06:39:55;;;;;;;2.03;1.10;;;10.40;99.90;;;;;;4933418;29;20215;-83
2023/06/19 06:42:27;;;;;;;1.90;1.67;;;10.40;99.90;;;;;;4924483;29;20205;-84
2023/06/19 06:44:58;;;;;;;2.00;1.60;;;10.40;99.90;;;;;;4927814;29;20216;-83
2023/06/19 06:47:29;;;;;;;5.50;2.70;;;10.40;99.90;;;;;;4927511;29;20815;-84
2023/06/19 06:50:01;;;;;;;3.53;2.30;;;10.40;99.90;;;;;;4918266;29;20201;-83
2023/06/19 06:52:31;;;;;;;3.33;3.03;;;10.40;99.90;;;;;;4930210;29;20218;-83
2023/06/19 06:55:02;;;;;;;3.30;2.70;;;10.50;99.90;;;;;;4931039;29;20232;-82
2023/06/19 06:57:35;;;;;;;3.00;2.43;;;10.40;99.90;;;;;;4930310;29;20877;-83
2023/06/19 07:00:09;;;;;;;2.70;2.50;;;10.40;99.90;;;;;;4925200;29;20208;-84
2023/06/19 07:02:41;;;;;;;2.80;2.60;;;10.40;99.90;;;;;;4934570;29;20214;-84
2023/06/19 07:05:12;;;;;;;2.47;2.23;;;10.40;99.90;;;;;;4935033;29;20248;-84
2023/06/19 07:07:43;;;;;;;2.73;2.00;;;10.40;99.90;;;;;;4932728;29;20212;-85
2023/06/19 07:10:14;;;;;;;2.73;1.73;;;10.40;99.90;;;;;;4922436;29;20238;-85
2023/06/19 07:12:51;;;;;;;1.87;1.60;;;10.30;99.90;;;;;;4935647;29;20673;-84
2023/06/19 07:15:22;;;;;;;3.70;1.70;;;10.20;99.90;;;;;;4936875;29;20232;-84
2023/06/19 07:17:52;;;;;;;1.83;1.40;;;10.20;99.90;;;;;;4931689;29;20205;-84
2023/06/19 07:20:23;;;;;;;1.73;1.20;;;10.10;99.90;;;;;;4930818;29;20220;-84
2023/06/19 07:22:55;;;;;;;4.13;1.37;;;10.10;99.90;;;;;;4936468;29;20204;-85
2023/06/19 07:25:26;;;;;;;1.40;1.30;;;10.10;99.90;;;;;;4935821;29;20219;-83
2023/06/19 07:27:59;;;;;;;2.00;1.30;;;10.00;99.90;;;;;;4935139;29;20232;-85
2023/06/19 07:30:30;;;;;;;2.93;1.40;;;10.00;99.90;;;;;;4928145;29;20212;-82
2023/06/19 07:33:01;;;;;;;4.63;1.30;;;9.90;99.90;;;;;;4935220;29;20243;-85
2023/06/19 07:35:32;;;;;;;1.23;1.10;;;9.80;99.90;;;;;;4935697;29;20236;-85
2023/06/19 07:38:03;;;;;;;2.03;1.47;;;9.80;99.90;;;;;;4931670;29;20208;-84
2023/06/19 07:40:33;;;;;;;1.57;1.20;;;9.70;99.90;;;;;;4920259;29;20209;-85
2023/06/19 07:43:06;;;;;;;1.70;1.20;;;9.70;99.90;;;;;;4932779;29;20687;-86
2023/06/19 07:45:37;;;;;;;1.57;1.20;;;9.70;99.90;;;;;;4932702;29;20204;-85
2023/06/19 07:48:07;;;;;;;1.60;1.30;;;9.60;99.90;;;;;;4934503;29;20228;-85
2023/06/19 07:50:38;;;;;;;3.87;1.30;;;9.60;99.90;;;;;;4929869;29;20215;-85
2023/06/19 07:53:09;;;;;;;4.37;1.30;;;9.60;99.90;;;;;;4935627;29;20212;-85
2023/06/19 07:55:40;;;;;;;3.73;1.60;;;9.50;99.90;;;;;;4934728;29;20232;-85
2023/06/19 07:58:13;;;;;;;1.80;1.10;;;9.50;99.90;;;;;;4934821;29;20196;-86
2023/06/19 08:00:44;;;;;;;1.50;1.20;;;9.40;99.90;;;;;;4933516;29;20671;-85
2023/06/19 08:03:15;;;;;;;2.43;1.27;;;9.40;99.90;;;;;;4925999;29;20208;-85
2023/06/19 08:05:46;;;;;;;3.47;1.53;;;9.30;99.90;;;;;;4928457;29;20250;-85
2023/06/19 08:08:16;;;;;;;2.00;1.47;;;9.30;99.90;;;;;;4934733;29;20279;-86
2023/06/19 08:10:47;;;;;;;2.27;1.20;;;9.30;99.90;;;;;;4923291;29;20219;-85
2023/06/19 08:13:20;;;;;;;1.93;1.57;;;9.30;99.90;;;;;;4925810;29;20204;-86
2023/06/19 08:15:51;;;;;;;2.47;1.30;;;9.30;99.90;;;;;;4930488;29;20700;-86
2023/06/19 08:18:21;;;;;;;2.03;1.17;;;9.30;99.90;;;;;;4932566;29;20603;-86
2023/06/19 08:20:52;;;;;;;1.57;1.00;;;9.30;99.90;;;;;;4929080;29;20672;-85
2023/06/19 08:23:23;;;;;;;1.90;1.67;;;9.30;99.90;;;;;;4933130;29;20274;-84
2023/06/19 08:25:54;;;;;;;4.27;1.50;;;9.40;99.90;;;;;;4931869;29;20657;-85
2023/06/19 08:28:26;;;;;;;2.03;1.20;;;9.40;99.90;;;;;;4932258;29;20211;-84
2023/06/19 08:30:57;;;;;;;2.23;1.30;;;9.40;99.90;;;;;;4924625;29;20717;-85
2023/06/19 08:33:28;;;;;;;1.60;1.10;;;9.40;99.90;;;;;;4929963;29;20653;-84
2023/06/19 08:35:59;;;;;;;2.33;1.40;;;9.40;99.90;;;;;;4928993;29;20608;-84
2023/06/19 08:38:30;;;;;;;1.73;1.30;;;9.50;99.90;;;;;;4920045;29;20699;-83
2023/06/19 08:41:01;;;;;;;2.57;1.57;;;9.50;99.90;;;;;;4925258;29;20199;-86
2023/06/19 08:43:33;;;;;;;2.57;1.50;;;9.50;99.90;;;;;;4946044;29;20216;-84
2023/06/19 08:46:11;;;;;;;2.80;1.57;;;9.50;99.90;;;;;;4950754;29;20218;-86
2023/06/19 08:48:42;;;;;;;4.10;1.73;;;9.40;99.90;;;;;;4941289;29;20216;-84
2023/06/19 08:51:14;;;;;;;3.07;1.50;;;9.40;99.90;;;;;;4944036;29;20776;-85
2023/06/19 08:53:50;;;;;;;1.97;1.50;;;9.40;99.90;;;;;;4935924;29;20200;-85
2023/06/19 08:56:21;;;;;;;1.30;1.20;;;9.40;99.90;;;;;;4931858;29;20590;-85
2023/06/19 08:58:55;;;;;;;1.47;1.37;;;9.40;99.90;;;;;;4933973;29;20218;-85
2023/06/19 09:01:27;;;;;;;2.00;1.30;;;9.40;99.90;;;;;;4925544;29;20201;-84
2023/06/19 09:03:58;;;;;;;1.40;1.30;;;9.40;99.90;;;;;;4920127;29;20704;-83
2023/06/19 09:06:29;;;;;;;5.53;1.70;;;9.40;99.90;;;;;;4925303;29;20233;-85
2023/06/19 09:09:01;;;;;;;3.20;1.70;;;9.30;99.90;;;;;;4926989;29;20250;-85
2023/06/19 09:11:32;;;;;;;1.90;1.23;;;9.40;99.90;;;;;;4932414;29;20232;-85
2023/06/19 09:14:04;;;;;;;2.60;1.40;;;9.40;99.90;;;;;;4933847;29;20243;-85
2023/06/19 09:16:40;;;;;;;2.27;1.47;;;9.40;99.90;;;;;;4928418;29;20283;-85
2023/06/19 09:19:11;;;;;;;1.40;1.30;;;9.40;99.90;;;;;;4927188;29;20544;-84
2023/06/19 09:21:41;;;;;;;1.47;1.33;;;9.40;99.90;;;;;;4923856;29;20218;-86
2023/06/19 09:24:12;;;;;;;4.47;1.50;;;9.30;99.90;;;;;;4934061;29;20287;-83
2023/06/19 09:26:43;;;;;;;2.37;1.40;;;9.30;99.90;;;;;;4933937;29;20605;-85
2023/06/19 09:29:18;;;;;;;4.50;1.47;;;9.30;99.90;;;;;;4926883;29;20212;-84
2023/06/19 09:31:50;;;;;;;1.20;1.10;;;9.30;99.90;;;;;;4921619;29;20209;-85
2023/06/19 09:34:21;;;;;;;1.30;1.20;;;9.30;99.90;;;;;;4928820;29;20226;-86
2023/06/19 09:36:53;;;;;;;1.30;1.20;;;9.30;99.90;;;;;;4932794;29;20231;-84
2023/06/19 09:39:28;;;;;;;1.27;1.17;;;9.20;99.90;;;;;;4927694;29;20200;-85
2023/06/19 09:42:00;;;;;;;3.50;1.20;;;9.30;99.90;;;;;;4915920;29;20212;-84
2023/06/19 09:44:39;;;;;;;4.20;1.50;;;9.30;99.90;;;;;;4917494;29;20205;-85
2023/06/19 09:47:21;;;;;;;1.87;1.43;;;9.30;99.90;;;;;;4923151;29;20584;-83
2023/06/19 09:49:56;;;;;;;2.30;1.30;;;9.40;99.90;;;;;;4915078;29;20673;-85
2023/06/19 09:52:27;;;;;;;1.50;1.30;;;9.40;99.90;;;;;;4927157;29;20206;-86
2023/06/19 09:54:59;;;;;;;1.73;1.43;;;9.40;99.90;;;;;;4933953;29;20200;-84
2023/06/19 09:57:30;;;;;;;2.27;1.10;;;9.40;99.90;;;;;;4915995;29;20233;-86
2023/06/19 10:00:12;;;;;;;1.73;1.37;;;9.50;99.90;;;;;;4916652;29;20216;-85
2023/06/19 10:02:43;;;;;;;1.27;1.17;;;9.50;99.90;;;;;;4932801;29;20303;-85
2023/06/19 10:05:14;;;;;;;2.40;1.10;;;9.50;99.90;;;;;;4933259;29;20312;-85
2023/06/19 10:07:47;;;;;;;2.83;1.43;;;9.50;99.90;;;;;;4935257;29;20213;-85
2023/06/19 10:10:26;;;;;;;2.73;1.07;;;9.60;99.90;;;;;;4929478;29;20205;-85
2023/06/19 10:13:01;;;;;;;2.50;1.20;;;9.60;99.90;;;;;;4921218;29;20237;-85
2023/06/19 10:15:34;;;;;;;1.27;1.10;;;9.50;99.90;;;;;;4935901;29;20565;-85
2023/06/19 10:18:07;;;;;;;2.63;1.10;;;9.50;99.90;;;;;;4928831;29;20240;-85
2023/06/19 10:20:38;;;;;;;2.67;1.23;;;9.50;99.90;;;;;;4928830;29;20216;-85
2023/06/19 10:23:19;;;;;;;1.67;1.03;;;9.60;99.90;;;;;;4930101;29;20208;-84
2023/06/19 10:25:56;;;;;;;2.23;1.20;;;9.60;99.90;;;;;;4923856;29;20262;-85
2023/06/19 10:28:29;;;;;;;1.97;1.30;;;9.50;99.90;;;;;;4934595;29;20215;-84
2023/06/19 10:31:03;;;;;;;1.53;1.00;;;9.50;99.90;;;;;;4935587;29;20211;-84
2023/06/19 10:33:36;;;;;;;1.67;1.40;;;9.50;99.90;;;;;;4931062;29;20201;-85
2023/06/19 10:36:16;;;;;;;3.40;1.07;;;9.40;99.90;;;;;;4930270;29;20208;-84
2023/06/19 10:38:48;;;;;;;2.33;1.20;;;9.40;99.90;;;;;;4926897;29;20563;-85
2023/06/19 10:41:19;;;;;;;2.70;1.20;;;9.50;99.90;;;;;;4932222;29;20573;-85
2023/06/19 10:43:57;;;;;;;1.20;1.10;;;9.50;99.90;;;;;;4931439;29;20256;-86
2023/06/19 10:46:32;;;;;;;1.83;1.63;;;9.50;99.90;;;;;;4930796;29;20215;-85
2023/06/19 10:49:04;;;;;;;1.27;1.07;;;9.50;99.90;;;;;;4932305;29;20206;-85
2023/06/19 10:51:37;;;;;;;2.80;1.43;;;9.60;99.90;;;;;;4930743;29;20212;-85
2023/06/19 10:54:09;;;;;;;2.00;1.40;;;9.50;99.90;;;;;;4938657;29;20713;-85
2023/06/19 10:56:40;;;;;;;1.67;1.23;;;9.50;99.90;;;;;;4926608;29;20375;-84
2023/06/19 10:59:13;;;;;;;1.67;1.30;;;9.40;99.90;;;;;;4924903;29;20203;-84
2023/06/19 11:01:47;;;;;;;4.30;1.20;;;9.40;99.90;;;;;;4935929;29;20295;-84
2023/06/19 11:04:18;;;;;;;2.50;1.20;;;9.40;99.90;;;;;;4939394;29;20211;-85
2023/06/19 11:06:49;;;;;;;1.50;1.40;;;9.30;99.90;;;;;;4941328;29;20211;-85
2023/06/19 11:09:21;;;;;;;1.53;1.30;;;9.30;99.90;;;;;;4929319;29;20676;-85
2023/06/19 11:11:52;;;;;;;1.97;1.30;;;9.30;99.90;;;;;;4933325;29;20200;-85
2023/06/19 11:14:22;;;;;;;1.60;1.40;;;9.40;99.90;;;;;;4939383;29;20212;-85
2023/06/19 11:16:55;;;;;;;2.80;2.10;;;9.30;99.90;;;;;;4935279;29;20292;-85
2023/06/19 11:19:33;;;;;;;3.43;2.03;;;9.30;99.90;;;;;;4932418;29;20208;-87
2023/06/19 11:22:04;;;;;;;2.23;1.80;;;9.20;99.90;;;;;;4920163;29;20220;-85
2023/06/19 11:24:34;;;;;;;3.77;2.07;;;9.10;99.90;;;;;;4920034;29;20265;-84
2023/06/19 11:27:10;;;;;;;2.70;2.03;;;9.00;99.90;;;;;;4935965;29;20311;-84
2023/06/19 11:29:42;;;;;;;2.30;1.80;;;9.10;99.90;;;;;;4935244;29;20574;-84
2023/06/19 11:32:17;;;;;;;2.93;1.80;;;9.10;99.90;;;;;;4933205;29;20219;-86
2023/06/19 11:34:48;;;;;;;2.90;1.80;;;9.10;99.90;;;;;;4935221;29;20241;-84
2023/06/19 11:37:20;;;;;;;3.20;1.60;;;9.20;99.90;;;;;;4933356;29;20225;-85
2023/06/19 11:39:53;;;;;;;2.50;1.90;;;9.10;99.90;;;;;;4935345;29;20653;-87
2023/06/19 11:42:25;;;;;;;4.27;2.00;;;9.10;99.90;;;;;;4927046;29;20205;-86
2023/06/19 11:44:56;;;;;;;3.10;1.70;;;9.10;99.90;;;;;;4934135;29;20337;-86
2023/06/19 11:47:31;;;;;;;3.00;1.40;;;9.10;99.90;;;;;;4927276;29;20208;-88
2023/06/19 11:50:05;;;;;;;3.30;1.70;;;9.10;99.90;;;;;;4922611;29;20232;-86
2023/06/19 11:52:36;;;;;;;2.83;1.90;;;9.00;99.90;;;;;;4935594;29;20243;-86
2023/06/19 11:55:08;;;;;;;1.83;1.63;;;9.00;99.90;;;;;;4935573;29;20236;-84
2023/06/19 11:57:40;;;;;;;2.13;1.70;;;8.90;99.90;;;;;;4933927;29;20232;-85
2023/06/19 12:00:20;;;;;;;2.07;1.60;;;8.80;99.90;;;;;;4916892;29;20213;-84
2023/06/19 12:02:53;;;;;;;1.63;1.53;;;8.80;99.90;;;;;;4914115;29;20938;-85
2023/06/19 12:05:24;;;;;;;2.57;1.60;;;8.80;99.90;;;;;;4914089;29;20223;-85
2023/06/19 12:07:55;;;;;;;2.50;1.63;;;8.80;99.90;;;;;;4913387;29;20201;-83
2023/06/19 12:10:25;;;;;;;2.20;2.00;;;8.80;99.90;;;;;;4913761;29;20213;-84
2023/06/19 12:12:57;;;;;;;3.00;1.80;;;8.80;99.90;;;;;;4928962;29;20251;-85
2023/06/19 12:15:28;;;;;;;2.07;1.60;;;8.80;99.90;;;;;;4932418;29;20204;-84
2023/06/19 12:18:00;;;;;;;2.60;1.70;;;8.80;99.90;;;;;;4934845;29;20255;-85
2023/06/19 12:20:32;;;;;;;2.73;1.90;;;8.70;99.90;;;;;;4934965;29;20212;-84
2023/06/19 12:23:03;;;;;;;1.80;1.70;;;8.60;99.90;;;;;;4934706;29;20211;-85
2023/06/19 12:25:34;;;;;;;3.00;1.77;;;8.60;99.90;;;;;;4933664;29;20233;-85
2023/06/19 12:28:08;;;;;;;5.93;1.67;;;8.60;99.90;;;;;;4926996;29;20284;-86
2023/06/19 12:30:39;;;;;;;2.40;2.20;;;8.50;99.90;;;;;;4925192;29;20204;-84
2023/06/19 12:33:11;;;;;;;3.83;2.10;;;8.50;99.90;;;;;;4933477;29;20681;-86
2023/06/19 12:35:43;;;;;;;5.20;2.70;;;8.30;99.90;;;;;;4931409;29;20208;-85
2023/06/19 12:38:14;;;;;;;3.37;2.80;;;8.30;99.90;;;;;;4927219;29;20595;-86
2023/06/19 12:40:45;;;;;;;5.10;2.63;;;8.30;99.90;;;;;;4931486;29;20767;-88
2023/06/19 12:43:16;;;;;;;5.53;2.77;;;8.30;99.90;;;;;;4936197;29;20200;-86
2023/06/19 12:45:48;;;;;;;3.90;3.00;;;8.30;99.90;;;;;;4935195;29;20273;-85
2023/06/19 12:48:20;;;;;;;7.90;3.23;;;8.40;99.90;;;;;;4924274;29;20272;-84
2023/06/19 12:50:51;;;;;;;4.67;2.83;;;8.40;99.90;;;;;;4923265;29;20215;-85
2023/06/19 12:53:26;;;;;;;3.77;2.70;;;8.30;99.90;;;;;;4923691;29;20680;-86
2023/06/19 12:55:58;;;;;;;4.63;2.90;;;8.30;99.90;;;;;;4917424;29;20227;-86
2023/06/19 12:58:33;;;;;;;4.77;3.00;;;8.30;99.90;;;;;;4934576;29;20291;-87
2023/06/19 13:01:04;;;;;;;9.00;3.57;;;8.30;99.90;;;;;;4931268;29;20288;-86
2023/06/19 13:03:37;;;;;;;4.10;3.20;;;8.30;99.90;;;;;;4934979;29;20208;-87
2023/06/19 13:06:08;;;;;;;6.17;3.70;;;8.40;99.90;;;;;;4927884;29;20205;-86
2023/06/19 13:08:39;;;;;;;7.10;3.40;;;8.50;99.90;;;;;;4928011;29;20735;-87
2023/06/19 13:11:10;;;;;;;7.37;3.63;;;8.60;99.90;;;;;;4921780;29;20231;-85
2023/06/19 13:13:41;;;;;;;8.43;3.50;;;8.60;99.90;;;;;;4922371;29;20312;-87